sensor_id;sensor_type;location;lat;lon;timestamp;P1;durP1;ratioP1;P2;durP2;ratioP2
4808;SDS011;2418;49.930;8.606;2024-02-21T00:01:56;16.35;;;7.60;;
4808;SDS011;2418;49.930;8.606;2024-02-21T00:04:22;24.27;;;6.93;;
4808;SDS011;2418;49.930;8.606;2024-02-21T00:06:48;17.90;;;6.40;;
4808;SDS011;2418;49.930;8.606;2024-02-21T00:09:14;13.25;;;6.40;;
4808;SDS011;2418;49.930;8.606;2024-02-21T00:11:39;18.73;;;7.97;;
4808;SDS011;2418;49.930;8.606;2024-02-21T00:14:05;19.20;;;7.10;;
4808;SDS011;2418;49.930;8.606;2024-02-21T00:16:31;24.30;;;7.38;;
4808;SDS011;2418;49.930;8.606;2024-02-21T00:18:57;18.23;;;7.18;;
4808;SDS011;2418;49.930;8.606;2024-02-21T00:21:24;14.82;;;6.85;;
4808;SDS011;2418;49.930;8.606;2024-02-21T00:23:50;16.10;;;7.47;;
4808;SDS011;2418;49.930;8.606;2024-02-21T00:26:16;14.98;;;6.70;;
4808;SDS011;2418;49.930;8.606;2024-02-21T00:28:42;16.25;;;7.28;;
4808;SDS011;2418;49.930;8.606;2024-02-21T00:31:08;17.45;;;8.43;;
4808;SDS011;2418;49.930;8.606;2024-02-21T00:33:34;25.67;;;8.50;;
4808;SDS011;2418;49.930;8.606;2024-02-21T00:36:00;19.67;;;7.88;;
4808;SDS011;2418;49.930;8.606;2024-02-21T00:38:25;18.13;;;8.10;;
4808;SDS011;2418;49.930;8.606;2024-02-21T00:40:51;16.88;;;7.50;;
4808;SDS011;2418;49.930;8.606;2024-02-21T00:43:17;20.23;;;8.45;;
4808;SDS011;2418;49.930;8.606;2024-02-21T00:45:43;17.70;;;8.20;;
4808;SDS011;2418;49.930;8.606;2024-02-21T00:48:09;21.55;;;8.63;;
4808;SDS011;2418;49.930;8.606;2024-02-21T00:50:35;16.00;;;8.02;;
4808;SDS011;2418;49.930;8.606;2024-02-21T00:53:02;15.23;;;8.57;;
4808;SDS011;2418;49.930;8.606;2024-02-21T00:55:28;19.73;;;7.57;;
4808;SDS011;2418;49.930;8.606;2024-02-21T00:57:54;26.48;;;8.50;;
4808;SDS011;2418;49.930;8.606;2024-02-21T01:00:20;25.35;;;9.15;;
4808;SDS011;2418;49.930;8.606;2024-02-21T01:02:46;15.07;;;8.75;;
4808;SDS011;2418;49.930;8.606;2024-02-21T01:05:12;19.25;;;8.80;;
4808;SDS011;2418;49.930;8.606;2024-02-21T01:07:38;22.20;;;8.60;;
4808;SDS011;2418;49.930;8.606;2024-02-21T01:10:05;20.63;;;8.63;;
4808;SDS011;2418;49.930;8.606;2024-02-21T01:12:31;24.23;;;8.55;;
4808;SDS011;2418;49.930;8.606;2024-02-21T01:14:57;21.45;;;8.48;;
4808;SDS011;2418;49.930;8.606;2024-02-21T01:17:23;24.52;;;8.05;;
4808;SDS011;2418;49.930;8.606;2024-02-21T01:19:49;24.80;;;8.85;;
4808;SDS011;2418;49.930;8.606;2024-02-21T01:22:15;18.50;;;8.27;;
4808;SDS011;2418;49.930;8.606;2024-02-21T01:24:41;22.73;;;8.45;;
4808;SDS011;2418;49.930;8.606;2024-02-21T01:27:07;19.05;;;9.05;;
4808;SDS011;2418;49.930;8.606;2024-02-21T01:29:33;17.73;;;8.43;;
4808;SDS011;2418;49.930;8.606;2024-02-21T01:31:59;17.65;;;8.20;;
4808;SDS011;2418;49.930;8.606;2024-02-21T01:34:25;19.52;;;8.70;;
4808;SDS011;2418;49.930;8.606;2024-02-21T01:36:51;19.20;;;8.20;;
4808;SDS011;2418;49.930;8.606;2024-02-21T01:39:17;21.30;;;8.60;;
4808;SDS011;2418;49.930;8.606;2024-02-21T01:41:43;26.25;;;9.10;;
4808;SDS011;2418;49.930;8.606;2024-02-21T01:44:09;19.60;;;8.93;;
4808;SDS011;2418;49.930;8.606;2024-02-21T01:46:35;24.50;;;9.63;;
4808;SDS011;2418;49.930;8.606;2024-02-21T01:49:02;22.95;;;8.38;;
4808;SDS011;2418;49.930;8.606;2024-02-21T01:51:29;20.33;;;8.70;;
4808;SDS011;2418;49.930;8.606;2024-02-21T01:53:56;16.50;;;9.00;;
4808;SDS011;2418;49.930;8.606;2024-02-21T01:56:22;28.10;;;8.73;;
4808;SDS011;2418;49.930;8.606;2024-02-21T01:58:49;25.05;;;8.88;;
4808;SDS011;2418;49.930;8.606;2024-02-21T02:01:16;25.98;;;9.07;;
4808;SDS011;2418;49.930;8.606;2024-02-21T02:03:42;26.40;;;9.25;;
4808;SDS011;2418;49.930;8.606;2024-02-21T02:06:11;15.52;;;7.93;;
4808;SDS011;2418;49.930;8.606;2024-02-21T02:08:38;18.50;;;8.97;;
4808;SDS011;2418;49.930;8.606;2024-02-21T02:11:04;19.50;;;8.82;;
4808;SDS011;2418;49.930;8.606;2024-02-21T02:13:30;14.88;;;8.70;;
4808;SDS011;2418;49.930;8.606;2024-02-21T02:15:56;16.35;;;8.25;;
4808;SDS011;2418;49.930;8.606;2024-02-21T02:18:22;20.75;;;8.75;;
4808;SDS011;2418;49.930;8.606;2024-02-21T02:20:48;28.42;;;8.90;;
4808;SDS011;2418;49.930;8.606;2024-02-21T02:25:45;19.25;;;9.52;;
4808;SDS011;2418;49.930;8.606;2024-02-21T02:28:14;18.13;;;7.80;;
4808;SDS011;2418;49.930;8.606;2024-02-21T02:30:40;25.17;;;9.32;;
4808;SDS011;2418;49.930;8.606;2024-02-21T02:33:06;18.63;;;8.63;;
4808;SDS011;2418;49.930;8.606;2024-02-21T02:35:32;22.00;;;8.98;;
4808;SDS011;2418;49.930;8.606;2024-02-21T02:38:00;26.30;;;9.00;;
4808;SDS011;2418;49.930;8.606;2024-02-21T02:40:26;23.80;;;9.48;;
4808;SDS011;2418;49.930;8.606;2024-02-21T02:42:52;29.00;;;8.98;;
4808;SDS011;2418;49.930;8.606;2024-02-21T02:45:20;27.50;;;9.55;;
4808;SDS011;2418;49.930;8.606;2024-02-21T02:47:47;21.85;;;9.13;;
4808;SDS011;2418;49.930;8.606;2024-02-21T02:50:13;22.77;;;9.20;;
4808;SDS011;2418;49.930;8.606;2024-02-21T02:52:39;24.42;;;9.77;;
4808;SDS011;2418;49.930;8.606;2024-02-21T02:55:05;25.02;;;9.98;;
4808;SDS011;2418;49.930;8.606;2024-02-21T02:57:32;21.23;;;9.32;;
4808;SDS011;2418;49.930;8.606;2024-02-21T02:59:58;23.33;;;9.90;;
4808;SDS011;2418;49.930;8.606;2024-02-21T03:02:24;23.42;;;10.10;;
4808;SDS011;2418;49.930;8.606;2024-02-21T03:04:50;22.83;;;8.93;;
4808;SDS011;2418;49.930;8.606;2024-02-21T03:07:16;14.70;;;8.75;;
4808;SDS011;2418;49.930;8.606;2024-02-21T03:09:42;28.83;;;9.10;;
4808;SDS011;2418;49.930;8.606;2024-02-21T03:12:09;33.97;;;9.60;;
4808;SDS011;2418;49.930;8.606;2024-02-21T03:14:35;24.88;;;9.10;;
4808;SDS011;2418;49.930;8.606;2024-02-21T03:17:01;22.35;;;9.35;;
4808;SDS011;2418;49.930;8.606;2024-02-21T03:19:27;19.38;;;9.98;;
4808;SDS011;2418;49.930;8.606;2024-02-21T03:21:53;26.13;;;10.10;;
4808;SDS011;2418;49.930;8.606;2024-02-21T03:24:19;19.80;;;9.40;;
4808;SDS011;2418;49.930;8.606;2024-02-21T03:26:45;24.13;;;9.52;;
4808;SDS011;2418;49.930;8.606;2024-02-21T03:29:14;19.75;;;9.10;;
4808;SDS011;2418;49.930;8.606;2024-02-21T03:31:40;23.60;;;8.50;;
4808;SDS011;2418;49.930;8.606;2024-02-21T03:34:06;27.42;;;9.80;;
4808;SDS011;2418;49.930;8.606;2024-02-21T03:36:32;27.30;;;9.20;;
4808;SDS011;2418;49.930;8.606;2024-02-21T03:38:58;19.50;;;9.35;;
4808;SDS011;2418;49.930;8.606;2024-02-21T03:41:24;21.85;;;9.25;;
4808;SDS011;2418;49.930;8.606;2024-02-21T03:43:50;17.48;;;9.30;;
4808;SDS011;2418;49.930;8.606;2024-02-21T03:46:16;19.50;;;9.05;;
4808;SDS011;2418;49.930;8.606;2024-02-21T03:48:42;21.88;;;9.43;;
4808;SDS011;2418;49.930;8.606;2024-02-21T03:51:08;22.08;;;9.23;;
4808;SDS011;2418;49.930;8.606;2024-02-21T03:53:34;20.52;;;9.05;;
4808;SDS011;2418;49.930;8.606;2024-02-21T03:56:03;25.13;;;10.23;;
4808;SDS011;2418;49.930;8.606;2024-02-21T03:58:32;15.57;;;8.25;;
4808;SDS011;2418;49.930;8.606;2024-02-21T04:01:01;19.90;;;8.90;;
4808;SDS011;2418;49.930;8.606;2024-02-21T04:03:27;22.15;;;9.55;;
4808;SDS011;2418;49.930;8.606;2024-02-21T04:05:53;18.40;;;9.40;;
4808;SDS011;2418;49.930;8.606;2024-02-21T04:08:19;20.30;;;8.70;;
4808;SDS011;2418;49.930;8.606;2024-02-21T04:10:45;20.15;;;8.88;;
4808;SDS011;2418;49.930;8.606;2024-02-21T04:13:11;21.48;;;8.38;;
4808;SDS011;2418;49.930;8.606;2024-02-21T04:15:37;19.88;;;8.88;;
4808;SDS011;2418;49.930;8.606;2024-02-21T04:18:03;17.83;;;8.03;;
4808;SDS011;2418;49.930;8.606;2024-02-21T04:20:29;21.95;;;8.48;;
4808;SDS011;2418;49.930;8.606;2024-02-21T04:22:55;14.63;;;7.30;;
4808;SDS011;2418;49.930;8.606;2024-02-21T04:25:22;13.68;;;7.90;;
4808;SDS011;2418;49.930;8.606;2024-02-21T04:27:48;22.38;;;8.00;;
4808;SDS011;2418;49.930;8.606;2024-02-21T04:30:14;19.42;;;8.32;;
4808;SDS011;2418;49.930;8.606;2024-02-21T04:32:40;21.60;;;7.45;;
4808;SDS011;2418;49.930;8.606;2024-02-21T04:35:07;16.75;;;7.70;;
4808;SDS011;2418;49.930;8.606;2024-02-21T04:37:33;17.08;;;7.70;;
4808;SDS011;2418;49.930;8.606;2024-02-21T04:39:59;19.48;;;7.80;;
4808;SDS011;2418;49.930;8.606;2024-02-21T04:42:25;15.10;;;7.95;;
4808;SDS011;2418;49.930;8.606;2024-02-21T04:44:51;19.27;;;6.90;;
4808;SDS011;2418;49.930;8.606;2024-02-21T04:47:18;16.65;;;8.10;;
4808;SDS011;2418;49.930;8.606;2024-02-21T04:49:45;18.25;;;7.30;;
4808;SDS011;2418;49.930;8.606;2024-02-21T04:52:11;23.05;;;8.50;;
4808;SDS011;2418;49.930;8.606;2024-02-21T04:54:37;16.00;;;7.65;;
4808;SDS011;2418;49.930;8.606;2024-02-21T04:57:03;18.52;;;8.45;;
4808;SDS011;2418;49.930;8.606;2024-02-21T04:59:29;14.33;;;7.60;;
4808;SDS011;2418;49.930;8.606;2024-02-21T05:01:55;18.52;;;7.95;;
4808;SDS011;2418;49.930;8.606;2024-02-21T05:04:21;26.05;;;8.68;;
4808;SDS011;2418;49.930;8.606;2024-02-21T05:06:47;19.20;;;8.10;;
4808;SDS011;2418;49.930;8.606;2024-02-21T05:09:13;22.33;;;8.93;;
4808;SDS011;2418;49.930;8.606;2024-02-21T05:11:39;18.73;;;8.32;;
4808;SDS011;2418;49.930;8.606;2024-02-21T05:14:05;24.58;;;8.65;;
4808;SDS011;2418;49.930;8.606;2024-02-21T05:16:32;16.52;;;8.43;;
4808;SDS011;2418;49.930;8.606;2024-02-21T05:18:58;18.40;;;8.20;;
4808;SDS011;2418;49.930;8.606;2024-02-21T05:21:24;15.80;;;8.30;;
4808;SDS011;2418;49.930;8.606;2024-02-21T05:23:50;23.80;;;8.55;;
4808;SDS011;2418;49.930;8.606;2024-02-21T05:26:20;20.80;;;9.02;;
4808;SDS011;2418;49.930;8.606;2024-02-21T05:28:46;19.35;;;8.50;;
4808;SDS011;2418;49.930;8.606;2024-02-21T05:31:12;19.35;;;7.97;;
4808;SDS011;2418;49.930;8.606;2024-02-21T05:33:39;26.42;;;8.90;;
4808;SDS011;2418;49.930;8.606;2024-02-21T05:36:05;14.48;;;7.70;;
4808;SDS011;2418;49.930;8.606;2024-02-21T05:38:31;19.83;;;8.10;;
4808;SDS011;2418;49.930;8.606;2024-02-21T05:40:57;22.00;;;9.35;;
4808;SDS011;2418;49.930;8.606;2024-02-21T05:43:23;18.40;;;9.45;;
4808;SDS011;2418;49.930;8.606;2024-02-21T05:45:49;27.40;;;9.63;;
4808;SDS011;2418;49.930;8.606;2024-02-21T05:48:15;16.88;;;8.77;;
4808;SDS011;2418;49.930;8.606;2024-02-21T05:50:41;19.42;;;8.90;;
4808;SDS011;2418;49.930;8.606;2024-02-21T05:53:07;18.77;;;9.35;;
4808;SDS011;2418;49.930;8.606;2024-02-21T05:55:35;18.60;;;9.05;;
4808;SDS011;2418;49.930;8.606;2024-02-21T05:58:01;27.30;;;9.98;;
4808;SDS011;2418;49.930;8.606;2024-02-21T06:00:27;23.38;;;9.70;;
4808;SDS011;2418;49.930;8.606;2024-02-21T06:02:53;22.38;;;8.68;;
4808;SDS011;2418;49.930;8.606;2024-02-21T06:05:19;22.73;;;9.40;;
4808;SDS011;2418;49.930;8.606;2024-02-21T06:07:45;18.58;;;8.43;;
4808;SDS011;2418;49.930;8.606;2024-02-21T06:10:11;22.35;;;9.70;;
4808;SDS011;2418;49.930;8.606;2024-02-21T06:12:37;19.20;;;8.20;;
4808;SDS011;2418;49.930;8.606;2024-02-21T06:15:03;21.25;;;9.02;;
4808;SDS011;2418;49.930;8.606;2024-02-21T06:17:29;26.00;;;8.93;;
4808;SDS011;2418;49.930;8.606;2024-02-21T06:19:55;28.20;;;8.25;;
4808;SDS011;2418;49.930;8.606;2024-02-21T06:22:21;18.77;;;8.05;;
4808;SDS011;2418;49.930;8.606;2024-02-21T06:24:47;17.20;;;7.32;;
4808;SDS011;2418;49.930;8.606;2024-02-21T06:27:13;15.13;;;7.32;;
4808;SDS011;2418;49.930;8.606;2024-02-21T06:29:41;20.77;;;7.57;;
4808;SDS011;2418;49.930;8.606;2024-02-21T06:32:07;14.37;;;7.27;;
4808;SDS011;2418;49.930;8.606;2024-02-21T06:34:33;17.17;;;7.70;;
4808;SDS011;2418;49.930;8.606;2024-02-21T06:36:59;11.30;;;7.20;;
4808;SDS011;2418;49.930;8.606;2024-02-21T06:39:25;15.07;;;7.18;;
4808;SDS011;2418;49.930;8.606;2024-02-21T06:41:51;22.33;;;7.60;;
4808;SDS011;2418;49.930;8.606;2024-02-21T06:44:18;18.00;;;7.03;;
4808;SDS011;2418;49.930;8.606;2024-02-21T06:46:44;15.40;;;7.47;;
4808;SDS011;2418;49.930;8.606;2024-02-21T06:49:10;18.40;;;7.32;;
4808;SDS011;2418;49.930;8.606;2024-02-21T06:51:41;19.92;;;7.28;;
4808;SDS011;2418;49.930;8.606;2024-02-21T06:54:07;22.15;;;7.80;;
4808;SDS011;2418;49.930;8.606;2024-02-21T06:56:34;22.30;;;7.75;;
4808;SDS011;2418;49.930;8.606;2024-02-21T06:59:00;19.88;;;7.18;;
4808;SDS011;2418;49.930;8.606;2024-02-21T07:01:26;17.90;;;7.10;;
4808;SDS011;2418;49.930;8.606;2024-02-21T07:03:52;16.45;;;7.00;;
4808;SDS011;2418;49.930;8.606;2024-02-21T07:06:18;18.40;;;7.20;;
4808;SDS011;2418;49.930;8.606;2024-02-21T07:08:44;19.83;;;7.97;;
4808;SDS011;2418;49.930;8.606;2024-02-21T07:11:10;15.55;;;7.88;;
4808;SDS011;2418;49.930;8.606;2024-02-21T07:13:36;21.85;;;7.50;;
4808;SDS011;2418;49.930;8.606;2024-02-21T07:16:02;12.65;;;7.45;;
4808;SDS011;2418;49.930;8.606;2024-02-21T07:18:28;16.10;;;7.43;;
4808;SDS011;2418;49.930;8.606;2024-02-21T07:20:53;18.63;;;7.20;;
4808;SDS011;2418;49.930;8.606;2024-02-21T07:23:20;21.15;;;8.43;;
4808;SDS011;2418;49.930;8.606;2024-02-21T07:25:46;17.38;;;7.13;;
4808;SDS011;2418;49.930;8.606;2024-02-21T07:28:12;16.52;;;6.95;;
4808;SDS011;2418;49.930;8.606;2024-02-21T07:30:39;14.45;;;7.60;;
4808;SDS011;2418;49.930;8.606;2024-02-21T07:33:05;15.05;;;7.50;;
4808;SDS011;2418;49.930;8.606;2024-02-21T07:35:35;15.85;;;7.30;;
4808;SDS011;2418;49.930;8.606;2024-02-21T07:38:03;16.38;;;7.22;;
4808;SDS011;2418;49.930;8.606;2024-02-21T07:40:29;15.57;;;6.78;;
4808;SDS011;2418;49.930;8.606;2024-02-21T07:42:55;22.52;;;7.63;;
4808;SDS011;2418;49.930;8.606;2024-02-21T07:45:21;20.77;;;7.37;;
4808;SDS011;2418;49.930;8.606;2024-02-21T07:47:49;14.45;;;7.05;;
4808;SDS011;2418;49.930;8.606;2024-02-21T07:50:15;14.57;;;6.90;;
4808;SDS011;2418;49.930;8.606;2024-02-21T07:52:41;27.73;;;7.38;;
4808;SDS011;2418;49.930;8.606;2024-02-21T07:55:07;12.60;;;6.60;;
4808;SDS011;2418;49.930;8.606;2024-02-21T07:57:35;19.10;;;6.30;;
4808;SDS011;2418;49.930;8.606;2024-02-21T08:00:01;20.20;;;6.80;;
4808;SDS011;2418;49.930;8.606;2024-02-21T08:02:29;11.40;;;5.93;;
4808;SDS011;2418;49.930;8.606;2024-02-21T08:04:55;17.60;;;6.70;;
4808;SDS011;2418;49.930;8.606;2024-02-21T08:07:21;17.88;;;6.00;;
4808;SDS011;2418;49.930;8.606;2024-02-21T08:09:47;14.73;;;6.40;;
4808;SDS011;2418;49.930;8.606;2024-02-21T08:12:12;16.42;;;6.43;;
4808;SDS011;2418;49.930;8.606;2024-02-21T08:14:39;14.30;;;5.97;;
4808;SDS011;2418;49.930;8.606;2024-02-21T08:17:05;12.75;;;6.10;;
4808;SDS011;2418;49.930;8.606;2024-02-21T08:19:31;15.32;;;6.30;;
4808;SDS011;2418;49.930;8.606;2024-02-21T08:21:57;12.55;;;6.30;;
4808;SDS011;2418;49.930;8.606;2024-02-21T08:24:23;14.13;;;6.00;;
4808;SDS011;2418;49.930;8.606;2024-02-21T08:26:49;15.07;;;5.57;;
4808;SDS011;2418;49.930;8.606;2024-02-21T08:29:15;9.65;;;5.70;;
4808;SDS011;2418;49.930;8.606;2024-02-21T08:31:40;13.27;;;5.70;;
4808;SDS011;2418;49.930;8.606;2024-02-21T08:34:06;11.87;;;5.87;;
4808;SDS011;2418;49.930;8.606;2024-02-21T08:36:33;10.63;;;5.25;;
4808;SDS011;2418;49.930;8.606;2024-02-21T08:39:00;11.18;;;6.05;;
4808;SDS011;2418;49.930;8.606;2024-02-21T08:41:27;12.43;;;5.85;;
4808;SDS011;2418;49.930;8.606;2024-02-21T08:43:55;14.23;;;5.80;;
4808;SDS011;2418;49.930;8.606;2024-02-21T08:46:20;11.07;;;5.60;;
4808;SDS011;2418;49.930;8.606;2024-02-21T08:48:47;22.15;;;5.80;;
4808;SDS011;2418;49.930;8.606;2024-02-21T08:51:13;12.63;;;5.88;;
4808;SDS011;2418;49.930;8.606;2024-02-21T08:53:39;10.07;;;5.65;;
4808;SDS011;2418;49.930;8.606;2024-02-21T08:56:05;14.32;;;5.80;;
4808;SDS011;2418;49.930;8.606;2024-02-21T08:58:32;17.60;;;6.45;;
4808;SDS011;2418;49.930;8.606;2024-02-21T09:00:58;17.15;;;6.00;;
4808;SDS011;2418;49.930;8.606;2024-02-21T09:03:24;21.00;;;6.28;;
4808;SDS011;2418;49.930;8.606;2024-02-21T09:05:50;11.65;;;5.15;;
4808;SDS011;2418;49.930;8.606;2024-02-21T09:08:16;6.88;;;4.88;;
4808;SDS011;2418;49.930;8.606;2024-02-21T09:10:43;10.57;;;5.15;;
4808;SDS011;2418;49.930;8.606;2024-02-21T09:13:09;15.30;;;5.10;;
4808;SDS011;2418;49.930;8.606;2024-02-21T09:15:35;13.35;;;5.93;;
4808;SDS011;2418;49.930;8.606;2024-02-21T09:18:01;11.48;;;5.00;;
4808;SDS011;2418;49.930;8.606;2024-02-21T09:20:27;8.00;;;5.28;;
4808;SDS011;2418;49.930;8.606;2024-02-21T09:22:54;13.55;;;4.50;;
4808;SDS011;2418;49.930;8.606;2024-02-21T09:25:20;7.75;;;5.18;;
4808;SDS011;2418;49.930;8.606;2024-02-21T09:27:46;14.60;;;4.97;;
4808;SDS011;2418;49.930;8.606;2024-02-21T09:30:11;8.30;;;4.97;;
4808;SDS011;2418;49.930;8.606;2024-02-21T09:32:38;12.65;;;4.82;;
4808;SDS011;2418;49.930;8.606;2024-02-21T09:35:04;10.80;;;4.87;;
4808;SDS011;2418;49.930;8.606;2024-02-21T09:37:30;12.18;;;4.43;;
4808;SDS011;2418;49.930;8.606;2024-02-21T09:39:57;9.70;;;4.07;;
4808;SDS011;2418;49.930;8.606;2024-02-21T09:42:24;13.15;;;5.80;;
4808;SDS011;2418;49.930;8.606;2024-02-21T09:45:03;12.75;;;4.60;;
4808;SDS011;2418;49.930;8.606;2024-02-21T09:48:19;11.30;;;5.20;;
4808;SDS011;2418;49.930;8.606;2024-02-21T09:50:18;9.38;;;5.00;;
4808;SDS011;2418;49.930;8.606;2024-02-21T09:52:46;9.93;;;5.30;;
4808;SDS011;2418;49.930;8.606;2024-02-21T09:55:13;13.52;;;5.35;;
4808;SDS011;2418;49.930;8.606;2024-02-21T09:57:40;18.88;;;6.32;;
4808;SDS011;2418;49.930;8.606;2024-02-21T10:00:06;14.30;;;6.30;;
4808;SDS011;2418;49.930;8.606;2024-02-21T10:02:33;10.93;;;5.07;;
4808;SDS011;2418;49.930;8.606;2024-02-21T10:04:59;13.00;;;5.75;;
4808;SDS011;2418;49.930;8.606;2024-02-21T10:07:25;11.93;;;5.38;;
4808;SDS011;2418;49.930;8.606;2024-02-21T10:10:01;11.27;;;4.78;;
4808;SDS011;2418;49.930;8.606;2024-02-21T10:12:27;10.38;;;5.05;;
4808;SDS011;2418;49.930;8.606;2024-02-21T10:15:02;20.42;;;6.10;;
4808;SDS011;2418;49.930;8.606;2024-02-21T10:17:28;9.52;;;5.00;;
4808;SDS011;2418;49.930;8.606;2024-02-21T10:19:54;13.30;;;5.30;;
4808;SDS011;2418;49.930;8.606;2024-02-21T10:22:20;12.80;;;5.87;;
4808;SDS011;2418;49.930;8.606;2024-02-21T10:24:46;11.77;;;4.55;;
4808;SDS011;2418;49.930;8.606;2024-02-21T10:27:12;10.48;;;6.13;;
4808;SDS011;2418;49.930;8.606;2024-02-21T10:29:39;15.20;;;5.60;;
4808;SDS011;2418;49.930;8.606;2024-02-21T10:34:32;13.10;;;5.30;;
4808;SDS011;2418;49.930;8.606;2024-02-21T10:37:04;11.23;;;5.32;;
4808;SDS011;2418;49.930;8.606;2024-02-21T10:39:34;12.65;;;6.05;;
4808;SDS011;2418;49.930;8.606;2024-02-21T10:42:01;13.63;;;5.80;;
4808;SDS011;2418;49.930;8.606;2024-02-21T10:44:34;9.02;;;5.28;;
4808;SDS011;2418;49.930;8.606;2024-02-21T10:47:03;12.80;;;5.60;;
4808;SDS011;2418;49.930;8.606;2024-02-21T10:49:32;8.63;;;5.40;;
4808;SDS011;2418;49.930;8.606;2024-02-21T10:52:14;6.90;;;4.80;;
4808;SDS011;2418;49.930;8.606;2024-02-21T10:54:44;12.05;;;5.68;;
4808;SDS011;2418;49.930;8.606;2024-02-21T10:57:15;14.05;;;5.05;;
4808;SDS011;2418;49.930;8.606;2024-02-21T10:59:41;14.88;;;5.18;;
4808;SDS011;2418;49.930;8.606;2024-02-21T11:02:08;12.27;;;5.00;;
4808;SDS011;2418;49.930;8.606;2024-02-21T11:04:34;13.77;;;5.13;;
4808;SDS011;2418;49.930;8.606;2024-02-21T11:07:01;15.90;;;4.82;;
4808;SDS011;2418;49.930;8.606;2024-02-21T11:09:29;11.30;;;5.50;;
4808;SDS011;2418;49.930;8.606;2024-02-21T11:11:57;5.95;;;4.40;;
4808;SDS011;2418;49.930;8.606;2024-02-21T11:14:25;11.02;;;5.47;;
4808;SDS011;2418;49.930;8.606;2024-02-21T11:16:51;12.60;;;5.38;;
4808;SDS011;2418;49.930;8.606;2024-02-21T11:21:46;12.05;;;5.03;;
4808;SDS011;2418;49.930;8.606;2024-02-21T11:24:25;8.20;;;4.90;;
4808;SDS011;2418;49.930;8.606;2024-02-21T11:26:52;12.70;;;4.20;;
4808;SDS011;2418;49.930;8.606;2024-02-21T11:29:27;6.93;;;3.80;;
4808;SDS011;2418;49.930;8.606;2024-02-21T11:31:53;13.30;;;4.47;;
4808;SDS011;2418;49.930;8.606;2024-02-21T11:34:19;10.45;;;4.10;;
4808;SDS011;2418;49.930;8.606;2024-02-21T11:39:18;8.82;;;4.43;;
4808;SDS011;2418;49.930;8.606;2024-02-21T11:41:46;11.23;;;4.80;;
4808;SDS011;2418;49.930;8.606;2024-02-21T11:44:12;13.90;;;4.68;;
4808;SDS011;2418;49.930;8.606;2024-02-21T11:46:38;6.60;;;4.60;;
4808;SDS011;2418;49.930;8.606;2024-02-21T11:49:04;7.22;;;3.92;;
4808;SDS011;2418;49.930;8.606;2024-02-21T11:51:30;11.40;;;4.30;;
4808;SDS011;2418;49.930;8.606;2024-02-21T11:53:56;7.38;;;3.97;;
4808;SDS011;2418;49.930;8.606;2024-02-21T11:56:22;11.38;;;5.03;;
4808;SDS011;2418;49.930;8.606;2024-02-21T11:58:48;10.85;;;4.40;;
4808;SDS011;2418;49.930;8.606;2024-02-21T12:01:15;9.83;;;3.90;;
4808;SDS011;2418;49.930;8.606;2024-02-21T12:03:42;12.55;;;4.60;;
4808;SDS011;2418;49.930;8.606;2024-02-21T12:06:14;13.47;;;4.40;;
4808;SDS011;2418;49.930;8.606;2024-02-21T12:08:44;8.32;;;4.10;;
4808;SDS011;2418;49.930;8.606;2024-02-21T12:11:22;12.20;;;4.38;;
4808;SDS011;2418;49.930;8.606;2024-02-21T12:13:58;9.43;;;4.00;;
4808;SDS011;2418;49.930;8.606;2024-02-21T12:16:26;17.50;;;4.10;;
4808;SDS011;2418;49.930;8.606;2024-02-21T12:18:53;8.65;;;4.72;;
4808;SDS011;2418;49.930;8.606;2024-02-21T12:21:19;10.55;;;4.10;;
4808;SDS011;2418;49.930;8.606;2024-02-21T12:23:49;4.45;;;3.70;;
4808;SDS011;2418;49.930;8.606;2024-02-21T12:26:14;10.68;;;3.50;;
4808;SDS011;2418;49.930;8.606;2024-02-21T12:28:41;12.60;;;3.80;;
4808;SDS011;2418;49.930;8.606;2024-02-21T12:31:06;8.02;;;3.85;;
4808;SDS011;2418;49.930;8.606;2024-02-21T12:33:32;13.15;;;4.32;;
4808;SDS011;2418;49.930;8.606;2024-02-21T12:36:00;4.10;;;3.70;;
4808;SDS011;2418;49.930;8.606;2024-02-21T12:38:25;9.95;;;3.60;;
4808;SDS011;2418;49.930;8.606;2024-02-21T12:40:51;9.32;;;3.90;;
4808;SDS011;2418;49.930;8.606;2024-02-21T12:43:18;8.93;;;4.18;;
4808;SDS011;2418;49.930;8.606;2024-02-21T12:45:44;7.28;;;3.75;;
4808;SDS011;2418;49.930;8.606;2024-02-21T12:48:10;8.50;;;4.38;;
4808;SDS011;2418;49.930;8.606;2024-02-21T12:50:37;17.15;;;3.60;;
4808;SDS011;2418;49.930;8.606;2024-02-21T12:53:02;8.73;;;3.70;;
4808;SDS011;2418;49.930;8.606;2024-02-21T12:55:28;12.48;;;4.07;;
4808;SDS011;2418;49.930;8.606;2024-02-21T12:57:55;7.88;;;4.32;;
4808;SDS011;2418;49.930;8.606;2024-02-21T13:00:22;10.63;;;3.80;;
4808;SDS011;2418;49.930;8.606;2024-02-21T13:02:51;13.30;;;3.90;;
4808;SDS011;2418;49.930;8.606;2024-02-21T13:05:18;12.63;;;4.10;;
4808;SDS011;2418;49.930;8.606;2024-02-21T13:07:44;9.80;;;4.40;;
4808;SDS011;2418;49.930;8.606;2024-02-21T13:10:10;10.63;;;4.25;;
4808;SDS011;2418;49.930;8.606;2024-02-21T13:12:36;10.15;;;4.55;;
4808;SDS011;2418;49.930;8.606;2024-02-21T13:15:02;14.07;;;3.90;;
4808;SDS011;2418;49.930;8.606;2024-02-21T13:17:28;7.13;;;3.60;;
4808;SDS011;2418;49.930;8.606;2024-02-21T13:19:56;13.20;;;4.80;;
4808;SDS011;2418;49.930;8.606;2024-02-21T13:22:22;12.03;;;5.33;;
4808;SDS011;2418;49.930;8.606;2024-02-21T13:24:51;21.35;;;7.55;;
4808;SDS011;2418;49.930;8.606;2024-02-21T13:27:16;43.40;;;18.52;;
4808;SDS011;2418;49.930;8.606;2024-02-21T13:29:42;10.48;;;5.55;;
4808;SDS011;2418;49.930;8.606;2024-02-21T13:32:10;20.73;;;11.68;;
4808;SDS011;2418;49.930;8.606;2024-02-21T13:34:36;27.40;;;15.88;;
4808;SDS011;2418;49.930;8.606;2024-02-21T13:37:02;15.57;;;8.17;;
4808;SDS011;2418;49.930;8.606;2024-02-21T13:39:29;13.90;;;7.82;;
4808;SDS011;2418;49.930;8.606;2024-02-21T13:41:55;17.87;;;6.27;;
4808;SDS011;2418;49.930;8.606;2024-02-21T13:44:21;8.23;;;4.30;;
4808;SDS011;2418;49.930;8.606;2024-02-21T13:46:47;11.27;;;3.80;;
4808;SDS011;2418;49.930;8.606;2024-02-21T13:49:13;5.70;;;3.30;;
4808;SDS011;2418;49.930;8.606;2024-02-21T13:51:40;9.68;;;3.50;;
4808;SDS011;2418;49.930;8.606;2024-02-21T13:54:07;7.40;;;3.67;;
4808;SDS011;2418;49.930;8.606;2024-02-21T13:56:34;6.00;;;3.05;;
4808;SDS011;2418;49.930;8.606;2024-02-21T13:59:00;9.90;;;3.80;;
4808;SDS011;2418;49.930;8.606;2024-02-21T14:01:26;9.93;;;3.67;;
4808;SDS011;2418;49.930;8.606;2024-02-21T14:03:56;9.88;;;3.05;;
4808;SDS011;2418;49.930;8.606;2024-02-21T14:06:23;9.17;;;3.30;;
4808;SDS011;2418;49.930;8.606;2024-02-21T14:08:48;7.53;;;3.50;;
4808;SDS011;2418;49.930;8.606;2024-02-21T14:11:15;9.43;;;3.47;;
4808;SDS011;2418;49.930;8.606;2024-02-21T14:13:41;5.45;;;3.65;;
4808;SDS011;2418;49.930;8.606;2024-02-21T14:16:10;4.55;;;3.00;;
4808;SDS011;2418;49.930;8.606;2024-02-21T14:18:38;4.47;;;2.78;;
4808;SDS011;2418;49.930;8.606;2024-02-21T14:21:05;6.80;;;3.00;;
4808;SDS011;2418;49.930;8.606;2024-02-21T14:23:31;12.10;;;3.40;;
4808;SDS011;2418;49.930;8.606;2024-02-21T14:25:59;7.80;;;3.00;;
4808;SDS011;2418;49.930;8.606;2024-02-21T14:28:25;9.65;;;3.28;;
4808;SDS011;2418;49.930;8.606;2024-02-21T14:30:51;5.88;;;2.63;;
4808;SDS011;2418;49.930;8.606;2024-02-21T14:33:18;17.52;;;4.38;;
4808;SDS011;2418;49.930;8.606;2024-02-21T14:35:44;7.82;;;3.72;;
4808;SDS011;2418;49.930;8.606;2024-02-21T14:38:10;9.68;;;3.72;;
4808;SDS011;2418;49.930;8.606;2024-02-21T14:40:36;14.15;;;4.07;;
4808;SDS011;2418;49.930;8.606;2024-02-21T14:43:02;6.78;;;2.90;;
4808;SDS011;2418;49.930;8.606;2024-02-21T14:45:28;7.53;;;3.63;;
4808;SDS011;2418;49.930;8.606;2024-02-21T14:47:54;8.15;;;3.45;;
4808;SDS011;2418;49.930;8.606;2024-02-21T14:50:20;8.90;;;3.67;;
4808;SDS011;2418;49.930;8.606;2024-02-21T14:52:47;6.95;;;3.17;;
4808;SDS011;2418;49.930;8.606;2024-02-21T14:55:13;7.70;;;2.83;;
4808;SDS011;2418;49.930;8.606;2024-02-21T14:57:39;7.20;;;2.97;;
4808;SDS011;2418;49.930;8.606;2024-02-21T15:00:08;7.60;;;2.70;;
4808;SDS011;2418;49.930;8.606;2024-02-21T15:02:35;5.75;;;2.83;;
4808;SDS011;2418;49.930;8.606;2024-02-21T15:05:01;8.77;;;3.22;;
4808;SDS011;2418;49.930;8.606;2024-02-21T15:07:28;8.75;;;3.28;;
4808;SDS011;2418;49.930;8.606;2024-02-21T15:09:54;6.18;;;3.50;;